sensor_id;sensor_type;location;lat;lon;timestamp;P1;durP1;ratioP1;P2;durP2;ratioP2
15946;SDS011;8072;52.554;7.966;2024-01-30T00:01:51;17.43;;;10.80;;
15946;SDS011;8072;52.554;7.966;2024-01-30T00:04:17;17.03;;;11.23;;
15946;SDS011;8072;52.554;7.966;2024-01-30T00:06:44;16.80;;;10.97;;
15946;SDS011;8072;52.554;7.966;2024-01-30T00:09:10;14.00;;;10.23;;
15946;SDS011;8072;52.554;7.966;2024-01-30T00:11:39;15.53;;;10.83;;
15946;SDS011;8072;52.554;7.966;2024-01-30T00:14:05;17.53;;;10.90;;
15946;SDS011;8072;52.554;7.966;2024-01-30T00:16:31;15.93;;;10.70;;
15946;SDS011;8072;52.554;7.966;2024-01-30T00:18:57;15.87;;;9.77;;
15946;SDS011;8072;52.554;7.966;2024-01-30T00:21:23;17.50;;;11.20;;
15946;SDS011;8072;52.554;7.966;2024-01-30T00:23:48;16.73;;;10.67;;
15946;SDS011;8072;52.554;7.966;2024-01-30T00:26:15;14.70;;;10.13;;
15946;SDS011;8072;52.554;7.966;2024-01-30T00:28:41;16.23;;;11.03;;
15946;SDS011;8072;52.554;7.966;2024-01-30T00:31:07;24.70;;;12.03;;
15946;SDS011;8072;52.554;7.966;2024-01-30T00:33:37;17.47;;;10.83;;
15946;SDS011;8072;52.554;7.966;2024-01-30T00:36:07;15.47;;;10.90;;
15946;SDS011;8072;52.554;7.966;2024-01-30T00:38:34;17.27;;;10.97;;
15946;SDS011;8072;52.554;7.966;2024-01-30T00:41:00;18.43;;;11.00;;
15946;SDS011;8072;52.554;7.966;2024-01-30T00:43:27;19.63;;;11.40;;
15946;SDS011;8072;52.554;7.966;2024-01-30T00:45:53;21.23;;;11.83;;
15946;SDS011;8072;52.554;7.966;2024-01-30T00:48:19;20.03;;;11.93;;
15946;SDS011;8072;52.554;7.966;2024-01-30T00:50:45;18.93;;;11.90;;
15946;SDS011;8072;52.554;7.966;2024-01-30T00:53:11;16.50;;;11.07;;
15946;SDS011;8072;52.554;7.966;2024-01-30T00:55:36;16.87;;;11.60;;
15946;SDS011;8072;52.554;7.966;2024-01-30T00:58:02;18.13;;;12.07;;
15946;SDS011;8072;52.554;7.966;2024-01-30T01:00:28;20.70;;;12.57;;
15946;SDS011;8072;52.554;7.966;2024-01-30T01:03:03;20.33;;;12.43;;
15946;SDS011;8072;52.554;7.966;2024-01-30T01:05:29;20.00;;;11.57;;
15946;SDS011;8072;52.554;7.966;2024-01-30T01:07:55;15.93;;;10.67;;
15946;SDS011;8072;52.554;7.966;2024-01-30T01:10:21;18.90;;;11.57;;
15946;SDS011;8072;52.554;7.966;2024-01-30T01:12:48;20.33;;;11.63;;
15946;SDS011;8072;52.554;7.966;2024-01-30T01:15:13;19.50;;;12.10;;
15946;SDS011;8072;52.554;7.966;2024-01-30T01:17:39;21.13;;;12.37;;
15946;SDS011;8072;52.554;7.966;2024-01-30T01:20:06;20.27;;;12.33;;
15946;SDS011;8072;52.554;7.966;2024-01-30T01:22:32;19.97;;;12.63;;
15946;SDS011;8072;52.554;7.966;2024-01-30T01:25:02;21.23;;;11.97;;
15946;SDS011;8072;52.554;7.966;2024-01-30T01:27:27;15.30;;;10.93;;
15946;SDS011;8072;52.554;7.966;2024-01-30T01:29:53;18.00;;;12.03;;
15946;SDS011;8072;52.554;7.966;2024-01-30T01:32:19;19.80;;;12.20;;
15946;SDS011;8072;52.554;7.966;2024-01-30T01:34:45;17.57;;;12.40;;
15946;SDS011;8072;52.554;7.966;2024-01-30T01:37:11;17.23;;;10.90;;
15946;SDS011;8072;52.554;7.966;2024-01-30T01:39:37;17.53;;;11.70;;
15946;SDS011;8072;52.554;7.966;2024-01-30T01:42:03;18.10;;;11.90;;
15946;SDS011;8072;52.554;7.966;2024-01-30T01:44:29;20.77;;;11.83;;
15946;SDS011;8072;52.554;7.966;2024-01-30T01:46:55;15.83;;;11.43;;
15946;SDS011;8072;52.554;7.966;2024-01-30T01:49:26;19.10;;;11.40;;
15946;SDS011;8072;52.554;7.966;2024-01-30T01:51:54;15.90;;;11.07;;
15946;SDS011;8072;52.554;7.966;2024-01-30T01:54:23;19.57;;;11.20;;
15946;SDS011;8072;52.554;7.966;2024-01-30T01:56:52;16.43;;;10.87;;
15946;SDS011;8072;52.554;7.966;2024-01-30T01:59:18;19.43;;;11.13;;
15946;SDS011;8072;52.554;7.966;2024-01-30T02:01:45;16.47;;;11.23;;
15946;SDS011;8072;52.554;7.966;2024-01-30T02:04:14;15.43;;;10.87;;
15946;SDS011;8072;52.554;7.966;2024-01-30T02:06:40;17.63;;;11.37;;
15946;SDS011;8072;52.554;7.966;2024-01-30T02:09:07;16.03;;;10.70;;
15946;SDS011;8072;52.554;7.966;2024-01-30T02:11:34;15.87;;;11.03;;
15946;SDS011;8072;52.554;7.966;2024-01-30T02:14:03;14.73;;;9.80;;
15946;SDS011;8072;52.554;7.966;2024-01-30T02:16:30;16.77;;;11.27;;
15946;SDS011;8072;52.554;7.966;2024-01-30T02:18:56;14.47;;;10.37;;
15946;SDS011;8072;52.554;7.966;2024-01-30T02:21:22;15.07;;;9.97;;
15946;SDS011;8072;52.554;7.966;2024-01-30T02:23:48;15.80;;;10.17;;
15946;SDS011;8072;52.554;7.966;2024-01-30T02:26:15;16.00;;;10.43;;
15946;SDS011;8072;52.554;7.966;2024-01-30T02:28:41;17.00;;;10.93;;
15946;SDS011;8072;52.554;7.966;2024-01-30T02:31:07;15.80;;;10.23;;
15946;SDS011;8072;52.554;7.966;2024-01-30T02:33:33;17.37;;;10.37;;
15946;SDS011;8072;52.554;7.966;2024-01-30T02:35:59;15.13;;;10.20;;
15946;SDS011;8072;52.554;7.966;2024-01-30T02:38:25;15.10;;;10.40;;
15946;SDS011;8072;52.554;7.966;2024-01-30T02:40:51;14.67;;;10.47;;
15946;SDS011;8072;52.554;7.966;2024-01-30T02:43:17;17.73;;;10.43;;
15946;SDS011;8072;52.554;7.966;2024-01-30T02:45:43;18.37;;;10.83;;
15946;SDS011;8072;52.554;7.966;2024-01-30T02:48:09;16.27;;;10.93;;
15946;SDS011;8072;52.554;7.966;2024-01-30T02:50:35;17.90;;;11.00;;
15946;SDS011;8072;52.554;7.966;2024-01-30T02:53:00;18.87;;;11.50;;
15946;SDS011;8072;52.554;7.966;2024-01-30T02:55:26;17.83;;;11.20;;
15946;SDS011;8072;52.554;7.966;2024-01-30T02:57:52;16.83;;;11.80;;
15946;SDS011;8072;52.554;7.966;2024-01-30T03:00:20;19.17;;;11.37;;
15946;SDS011;8072;52.554;7.966;2024-01-30T03:02:45;17.47;;;11.80;;
15946;SDS011;8072;52.554;7.966;2024-01-30T03:05:11;17.40;;;12.13;;
15946;SDS011;8072;52.554;7.966;2024-01-30T03:07:37;19.87;;;12.40;;
15946;SDS011;8072;52.554;7.966;2024-01-30T03:10:06;17.93;;;11.93;;
15946;SDS011;8072;52.554;7.966;2024-01-30T03:12:32;15.23;;;10.83;;
15946;SDS011;8072;52.554;7.966;2024-01-30T03:14:58;17.43;;;10.53;;
15946;SDS011;8072;52.554;7.966;2024-01-30T03:17:24;15.37;;;11.10;;
15946;SDS011;8072;52.554;7.966;2024-01-30T03:19:52;17.13;;;11.63;;
15946;SDS011;8072;52.554;7.966;2024-01-30T03:22:18;18.60;;;11.20;;
15946;SDS011;8072;52.554;7.966;2024-01-30T03:24:44;16.20;;;11.20;;
15946;SDS011;8072;52.554;7.966;2024-01-30T03:27:09;16.53;;;11.27;;
15946;SDS011;8072;52.554;7.966;2024-01-30T03:29:35;17.37;;;10.27;;
15946;SDS011;8072;52.554;7.966;2024-01-30T03:32:01;16.60;;;11.17;;
15946;SDS011;8072;52.554;7.966;2024-01-30T03:34:29;17.43;;;11.50;;
15946;SDS011;8072;52.554;7.966;2024-01-30T03:36:55;17.33;;;11.23;;
15946;SDS011;8072;52.554;7.966;2024-01-30T03:39:20;18.67;;;11.40;;
15946;SDS011;8072;52.554;7.966;2024-01-30T03:41:46;16.73;;;10.97;;
15946;SDS011;8072;52.554;7.966;2024-01-30T03:44:12;17.40;;;11.37;;
15946;SDS011;8072;52.554;7.966;2024-01-30T03:46:37;15.30;;;10.27;;
15946;SDS011;8072;52.554;7.966;2024-01-30T03:49:03;16.67;;;10.73;;
15946;SDS011;8072;52.554;7.966;2024-01-30T03:51:29;17.33;;;10.57;;
15946;SDS011;8072;52.554;7.966;2024-01-30T03:53:55;16.03;;;9.63;;
15946;SDS011;8072;52.554;7.966;2024-01-30T03:56:21;17.00;;;11.33;;
15946;SDS011;8072;52.554;7.966;2024-01-30T03:58:47;20.73;;;11.47;;
15946;SDS011;8072;52.554;7.966;2024-01-30T04:01:14;17.93;;;10.40;;
15946;SDS011;8072;52.554;7.966;2024-01-30T04:03:41;18.27;;;11.10;;
15946;SDS011;8072;52.554;7.966;2024-01-30T04:06:09;17.63;;;11.30;;
15946;SDS011;8072;52.554;7.966;2024-01-30T04:08:36;14.33;;;10.37;;
15946;SDS011;8072;52.554;7.966;2024-01-30T04:11:06;14.67;;;10.00;;
15946;SDS011;8072;52.554;7.966;2024-01-30T04:13:35;14.03;;;9.17;;
15946;SDS011;8072;52.554;7.966;2024-01-30T04:16:01;13.60;;;9.40;;
15946;SDS011;8072;52.554;7.966;2024-01-30T04:18:28;15.77;;;9.53;;
15946;SDS011;8072;52.554;7.966;2024-01-30T04:20:54;14.47;;;9.93;;
15946;SDS011;8072;52.554;7.966;2024-01-30T04:23:20;17.83;;;10.33;;
15946;SDS011;8072;52.554;7.966;2024-01-30T04:25:46;12.77;;;9.73;;
15946;SDS011;8072;52.554;7.966;2024-01-30T04:28:12;14.97;;;10.50;;
15946;SDS011;8072;52.554;7.966;2024-01-30T04:30:38;15.53;;;10.33;;
15946;SDS011;8072;52.554;7.966;2024-01-30T04:33:08;15.77;;;10.37;;
15946;SDS011;8072;52.554;7.966;2024-01-30T04:35:34;12.20;;;9.07;;
15946;SDS011;8072;52.554;7.966;2024-01-30T04:38:02;13.73;;;9.50;;
15946;SDS011;8072;52.554;7.966;2024-01-30T04:40:28;13.97;;;8.77;;
15946;SDS011;8072;52.554;7.966;2024-01-30T04:42:53;14.60;;;9.90;;
15946;SDS011;8072;52.554;7.966;2024-01-30T04:45:20;12.97;;;9.00;;
15946;SDS011;8072;52.554;7.966;2024-01-30T04:47:46;13.00;;;9.53;;
15946;SDS011;8072;52.554;7.966;2024-01-30T04:50:13;15.73;;;9.80;;
15946;SDS011;8072;52.554;7.966;2024-01-30T04:52:38;15.13;;;10.03;;
15946;SDS011;8072;52.554;7.966;2024-01-30T04:55:04;15.70;;;11.17;;
15946;SDS011;8072;52.554;7.966;2024-01-30T04:57:31;13.30;;;9.90;;
15946;SDS011;8072;52.554;7.966;2024-01-30T04:59:59;17.97;;;11.07;;
15946;SDS011;8072;52.554;7.966;2024-01-30T05:02:24;17.43;;;10.60;;
15946;SDS011;8072;52.554;7.966;2024-01-30T05:04:50;16.37;;;10.30;;
15946;SDS011;8072;52.554;7.966;2024-01-30T05:07:16;17.90;;;10.97;;
15946;SDS011;8072;52.554;7.966;2024-01-30T05:09:42;17.70;;;10.50;;
15946;SDS011;8072;52.554;7.966;2024-01-30T05:12:09;20.37;;;10.83;;
15946;SDS011;8072;52.554;7.966;2024-01-30T05:14:35;15.53;;;9.93;;
15946;SDS011;8072;52.554;7.966;2024-01-30T05:17:00;16.03;;;10.77;;
15946;SDS011;8072;52.554;7.966;2024-01-30T05:19:28;16.70;;;10.43;;
15946;SDS011;8072;52.554;7.966;2024-01-30T05:21:54;15.87;;;10.80;;
15946;SDS011;8072;52.554;7.966;2024-01-30T05:24:19;14.40;;;10.73;;
15946;SDS011;8072;52.554;7.966;2024-01-30T05:26:45;15.70;;;9.93;;
15946;SDS011;8072;52.554;7.966;2024-01-30T05:29:13;15.20;;;10.27;;
15946;SDS011;8072;52.554;7.966;2024-01-30T05:31:38;17.50;;;11.20;;
15946;SDS011;8072;52.554;7.966;2024-01-30T05:34:04;14.80;;;10.20;;
15946;SDS011;8072;52.554;7.966;2024-01-30T05:36:31;15.73;;;10.73;;
15946;SDS011;8072;52.554;7.966;2024-01-30T05:38:57;15.63;;;10.20;;
15946;SDS011;8072;52.554;7.966;2024-01-30T05:41:23;16.03;;;10.57;;
15946;SDS011;8072;52.554;7.966;2024-01-30T05:43:48;16.27;;;10.97;;
15946;SDS011;8072;52.554;7.966;2024-01-30T05:46:14;18.30;;;11.37;;
15946;SDS011;8072;52.554;7.966;2024-01-30T05:48:40;19.50;;;11.10;;
15946;SDS011;8072;52.554;7.966;2024-01-30T05:51:07;19.33;;;10.87;;
15946;SDS011;8072;52.554;7.966;2024-01-30T05:53:33;16.40;;;11.10;;
15946;SDS011;8072;52.554;7.966;2024-01-30T05:56:00;20.53;;;12.20;;
15946;SDS011;8072;52.554;7.966;2024-01-30T05:58:27;19.07;;;11.40;;
15946;SDS011;8072;52.554;7.966;2024-01-30T06:00:53;17.33;;;11.03;;
15946;SDS011;8072;52.554;7.966;2024-01-30T06:03:19;18.17;;;11.27;;
15946;SDS011;8072;52.554;7.966;2024-01-30T06:05:44;16.00;;;10.80;;
15946;SDS011;8072;52.554;7.966;2024-01-30T06:08:10;16.33;;;10.87;;
15946;SDS011;8072;52.554;7.966;2024-01-30T06:10:36;18.03;;;9.67;;
15946;SDS011;8072;52.554;7.966;2024-01-30T06:13:02;17.57;;;9.80;;
15946;SDS011;8072;52.554;7.966;2024-01-30T06:15:27;13.03;;;9.40;;
15946;SDS011;8072;52.554;7.966;2024-01-30T06:17:55;17.23;;;11.00;;
15946;SDS011;8072;52.554;7.966;2024-01-30T06:20:21;17.30;;;10.30;;
15946;SDS011;8072;52.554;7.966;2024-01-30T06:22:46;15.53;;;9.97;;
15946;SDS011;8072;52.554;7.966;2024-01-30T06:25:12;13.87;;;9.47;;
15946;SDS011;8072;52.554;7.966;2024-01-30T06:27:38;17.30;;;9.93;;
15946;SDS011;8072;52.554;7.966;2024-01-30T06:30:04;14.87;;;9.77;;
15946;SDS011;8072;52.554;7.966;2024-01-30T06:32:30;14.10;;;9.23;;
15946;SDS011;8072;52.554;7.966;2024-01-30T06:35:02;14.40;;;9.67;;
15946;SDS011;8072;52.554;7.966;2024-01-30T06:37:28;14.77;;;9.93;;
15946;SDS011;8072;52.554;7.966;2024-01-30T06:39:54;13.93;;;9.63;;
15946;SDS011;8072;52.554;7.966;2024-01-30T06:42:20;13.20;;;9.43;;
15946;SDS011;8072;52.554;7.966;2024-01-30T06:44:46;15.37;;;9.97;;
15946;SDS011;8072;52.554;7.966;2024-01-30T06:47:12;15.20;;;9.77;;
15946;SDS011;8072;52.554;7.966;2024-01-30T06:49:38;15.63;;;10.03;;
15946;SDS011;8072;52.554;7.966;2024-01-30T06:52:07;14.97;;;9.93;;
15946;SDS011;8072;52.554;7.966;2024-01-30T06:54:33;18.37;;;11.10;;
15946;SDS011;8072;52.554;7.966;2024-01-30T06:56:59;20.27;;;10.60;;
15946;SDS011;8072;52.554;7.966;2024-01-30T06:59:25;18.13;;;10.30;;
15946;SDS011;8072;52.554;7.966;2024-01-30T07:01:51;14.63;;;9.57;;
15946;SDS011;8072;52.554;7.966;2024-01-30T07:04:17;17.07;;;10.10;;
15946;SDS011;8072;52.554;7.966;2024-01-30T07:06:43;16.80;;;10.47;;
15946;SDS011;8072;52.554;7.966;2024-01-30T07:09:09;16.47;;;10.47;;
15946;SDS011;8072;52.554;7.966;2024-01-30T07:11:35;17.83;;;11.43;;
15946;SDS011;8072;52.554;7.966;2024-01-30T07:14:01;18.97;;;10.67;;
15946;SDS011;8072;52.554;7.966;2024-01-30T07:16:29;16.50;;;11.37;;
15946;SDS011;8072;52.554;7.966;2024-01-30T07:18:55;19.37;;;11.40;;
15946;SDS011;8072;52.554;7.966;2024-01-30T07:21:21;18.60;;;11.50;;
15946;SDS011;8072;52.554;7.966;2024-01-30T07:23:53;19.60;;;11.23;;
15946;SDS011;8072;52.554;7.966;2024-01-30T07:26:22;18.60;;;11.53;;
15946;SDS011;8072;52.554;7.966;2024-01-30T07:28:48;18.47;;;10.80;;
15946;SDS011;8072;52.554;7.966;2024-01-30T07:31:15;19.03;;;11.27;;
15946;SDS011;8072;52.554;7.966;2024-01-30T07:33:40;18.27;;;10.90;;
15946;SDS011;8072;52.554;7.966;2024-01-30T07:36:06;18.30;;;10.43;;
15946;SDS011;8072;52.554;7.966;2024-01-30T07:38:32;20.03;;;11.07;;
15946;SDS011;8072;52.554;7.966;2024-01-30T07:40:58;16.90;;;9.90;;
15946;SDS011;8072;52.554;7.966;2024-01-30T07:43:24;18.43;;;10.27;;
15946;SDS011;8072;52.554;7.966;2024-01-30T07:45:49;15.77;;;10.20;;
15946;SDS011;8072;52.554;7.966;2024-01-30T07:48:15;16.77;;;10.93;;
15946;SDS011;8072;52.554;7.966;2024-01-30T07:50:41;16.20;;;9.43;;
15946;SDS011;8072;52.554;7.966;2024-01-30T07:53:07;18.97;;;10.37;;
15946;SDS011;8072;52.554;7.966;2024-01-30T07:55:32;19.10;;;11.03;;
15946;SDS011;8072;52.554;7.966;2024-01-30T07:57:58;17.13;;;10.23;;
15946;SDS011;8072;52.554;7.966;2024-01-30T08:00:25;15.63;;;10.40;;
15946;SDS011;8072;52.554;7.966;2024-01-30T08:02:50;15.83;;;9.87;;
15946;SDS011;8072;52.554;7.966;2024-01-30T08:05:19;16.77;;;9.83;;
15946;SDS011;8072;52.554;7.966;2024-01-30T08:07:47;15.83;;;9.57;;
15946;SDS011;8072;52.554;7.966;2024-01-30T08:10:13;17.87;;;10.00;;
15946;SDS011;8072;52.554;7.966;2024-01-30T08:12:40;13.27;;;9.03;;
15946;SDS011;8072;52.554;7.966;2024-01-30T08:15:06;13.37;;;8.87;;
15946;SDS011;8072;52.554;7.966;2024-01-30T08:17:33;14.70;;;8.87;;
15946;SDS011;8072;52.554;7.966;2024-01-30T08:19:59;14.50;;;8.97;;
15946;SDS011;8072;52.554;7.966;2024-01-30T08:22:25;19.33;;;10.20;;
15946;SDS011;8072;52.554;7.966;2024-01-30T08:24:51;15.67;;;9.40;;
15946;SDS011;8072;52.554;7.966;2024-01-30T08:27:18;15.40;;;8.97;;
15946;SDS011;8072;52.554;7.966;2024-01-30T08:29:44;16.20;;;9.07;;
15946;SDS011;8072;52.554;7.966;2024-01-30T08:32:09;12.60;;;8.53;;
15946;SDS011;8072;52.554;7.966;2024-01-30T08:34:35;15.60;;;8.13;;
15946;SDS011;8072;52.554;7.966;2024-01-30T08:37:02;17.20;;;8.60;;
15946;SDS011;8072;52.554;7.966;2024-01-30T08:39:28;15.27;;;8.67;;
15946;SDS011;8072;52.554;7.966;2024-01-30T08:41:54;14.47;;;8.50;;
15946;SDS011;8072;52.554;7.966;2024-01-30T08:44:20;14.10;;;8.60;;
15946;SDS011;8072;52.554;7.966;2024-01-30T08:46:46;11.40;;;8.00;;
15946;SDS011;8072;52.554;7.966;2024-01-30T08:49:19;13.63;;;7.93;;
15946;SDS011;8072;52.554;7.966;2024-01-30T08:51:46;12.80;;;8.03;;
15946;SDS011;8072;52.554;7.966;2024-01-30T08:54:15;16.87;;;9.33;;
15946;SDS011;8072;52.554;7.966;2024-01-30T08:56:41;16.00;;;9.03;;
15946;SDS011;8072;52.554;7.966;2024-01-30T08:59:06;12.47;;;8.40;;
15946;SDS011;8072;52.554;7.966;2024-01-30T09:01:35;17.50;;;9.10;;
15946;SDS011;8072;52.554;7.966;2024-01-30T09:04:01;14.43;;;7.83;;
15946;SDS011;8072;52.554;7.966;2024-01-30T09:06:30;16.77;;;8.97;;
15946;SDS011;8072;52.554;7.966;2024-01-30T09:08:56;11.77;;;7.87;;
15946;SDS011;8072;52.554;7.966;2024-01-30T09:11:23;12.30;;;8.00;;
15946;SDS011;8072;52.554;7.966;2024-01-30T09:13:49;13.83;;;7.80;;
15946;SDS011;8072;52.554;7.966;2024-01-30T09:16:15;13.37;;;8.37;;
15946;SDS011;8072;52.554;7.966;2024-01-30T09:18:44;14.83;;;8.50;;
15946;SDS011;8072;52.554;7.966;2024-01-30T09:21:10;14.33;;;8.87;;
15946;SDS011;8072;52.554;7.966;2024-01-30T09:23:35;12.97;;;8.70;;
15946;SDS011;8072;52.554;7.966;2024-01-30T09:26:01;17.03;;;8.90;;
15946;SDS011;8072;52.554;7.966;2024-01-30T09:28:33;13.30;;;7.83;;
15946;SDS011;8072;52.554;7.966;2024-01-30T09:31:01;12.47;;;8.37;;
15946;SDS011;8072;52.554;7.966;2024-01-30T09:33:27;14.63;;;7.70;;
15946;SDS011;8072;52.554;7.966;2024-01-30T09:35:59;12.13;;;7.63;;
15946;SDS011;8072;52.554;7.966;2024-01-30T09:38:25;14.43;;;8.37;;
15946;SDS011;8072;52.554;7.966;2024-01-30T09:40:53;11.70;;;8.23;;
15946;SDS011;8072;52.554;7.966;2024-01-30T09:43:25;12.93;;;8.10;;
15946;SDS011;8072;52.554;7.966;2024-01-30T09:45:54;13.63;;;7.80;;
15946;SDS011;8072;52.554;7.966;2024-01-30T09:48:27;11.20;;;7.37;;
15946;SDS011;8072;52.554;7.966;2024-01-30T09:50:56;13.33;;;7.80;;
15946;SDS011;8072;52.554;7.966;2024-01-30T09:53:25;11.67;;;7.50;;
15946;SDS011;8072;52.554;7.966;2024-01-30T09:55:52;10.70;;;7.67;;
15946;SDS011;8072;52.554;7.966;2024-01-30T09:58:18;15.00;;;7.73;;
15946;SDS011;8072;52.554;7.966;2024-01-30T10:00:47;11.90;;;7.63;;
15946;SDS011;8072;52.554;7.966;2024-01-30T10:03:15;14.40;;;8.10;;
15946;SDS011;8072;52.554;7.966;2024-01-30T10:05:41;12.57;;;8.33;;
15946;SDS011;8072;52.554;7.966;2024-01-30T10:08:11;12.03;;;7.50;;
15946;SDS011;8072;52.554;7.966;2024-01-30T10:10:37;12.20;;;7.33;;
15946;SDS011;8072;52.554;7.966;2024-01-30T10:13:02;11.43;;;7.03;;
15946;SDS011;8072;52.554;7.966;2024-01-30T10:15:28;10.73;;;7.37;;
15946;SDS011;8072;52.554;7.966;2024-01-30T10:17:57;12.77;;;7.23;;
15946;SDS011;8072;52.554;7.966;2024-01-30T10:20:24;9.73;;;7.20;;
15946;SDS011;8072;52.554;7.966;2024-01-30T10:22:50;12.00;;;7.40;;
15946;SDS011;8072;52.554;7.966;2024-01-30T10:25:17;11.60;;;7.10;;
15946;SDS011;8072;52.554;7.966;2024-01-30T10:27:53;11.87;;;7.47;;
15946;SDS011;8072;52.554;7.966;2024-01-30T10:30:23;12.43;;;7.37;;
15946;SDS011;8072;52.554;7.966;2024-01-30T10:32:49;10.07;;;7.00;;
15946;SDS011;8072;52.554;7.966;2024-01-30T10:35:19;12.73;;;7.23;;
15946;SDS011;8072;52.554;7.966;2024-01-30T10:37:47;12.10;;;7.13;;
15946;SDS011;8072;52.554;7.966;2024-01-30T10:40:13;10.00;;;7.17;;
15946;SDS011;8072;52.554;7.966;2024-01-30T10:42:44;10.97;;;6.90;;
15946;SDS011;8072;52.554;7.966;2024-01-30T10:45:27;11.47;;;7.03;;
15946;SDS011;8072;52.554;7.966;2024-01-30T10:47:54;14.97;;;7.63;;
15946;SDS011;8072;52.554;7.966;2024-01-30T10:50:26;14.37;;;6.80;;
15946;SDS011;8072;52.554;7.966;2024-01-30T10:52:56;12.23;;;7.80;;
15946;SDS011;8072;52.554;7.966;2024-01-30T10:55:25;13.77;;;7.00;;
15946;SDS011;8072;52.554;7.966;2024-01-30T10:57:53;13.43;;;7.37;;
15946;SDS011;8072;52.554;7.966;2024-01-30T11:00:19;10.13;;;7.13;;
15946;SDS011;8072;52.554;7.966;2024-01-30T11:02:48;13.50;;;7.43;;
15946;SDS011;8072;52.554;7.966;2024-01-30T11:05:15;11.43;;;7.53;;
15946;SDS011;8072;52.554;7.966;2024-01-30T11:07:51;10.73;;;6.97;;
15946;SDS011;8072;52.554;7.966;2024-01-30T11:10:17;16.40;;;7.40;;
15946;SDS011;8072;52.554;7.966;2024-01-30T11:12:43;12.17;;;7.73;;
15946;SDS011;8072;52.554;7.966;2024-01-30T11:15:13;10.67;;;7.17;;
15946;SDS011;8072;52.554;7.966;2024-01-30T11:20:37;13.97;;;7.67;;
15946;SDS011;8072;52.554;7.966;2024-01-30T11:23:13;13.10;;;7.17;;
15946;SDS011;8072;52.554;7.966;2024-01-30T11:25:39;15.23;;;7.30;;
15946;SDS011;8072;52.554;7.966;2024-01-30T11:28:06;10.57;;;6.83;;
15946;SDS011;8072;52.554;7.966;2024-01-30T11:30:42;13.60;;;7.70;;
15946;SDS011;8072;52.554;7.966;2024-01-30T11:33:12;13.87;;;7.40;;
15946;SDS011;8072;52.554;7.966;2024-01-30T11:35:45;14.47;;;7.20;;
15946;SDS011;8072;52.554;7.966;2024-01-30T11:38:13;12.30;;;8.13;;
15946;SDS011;8072;52.554;7.966;2024-01-30T11:40:42;12.07;;;7.10;;
15946;SDS011;8072;52.554;7.966;2024-01-30T11:43:09;9.30;;;6.83;;
15946;SDS011;8072;52.554;7.966;2024-01-30T11:45:36;11.27;;;7.30;;
15946;SDS011;8072;52.554;7.966;2024-01-30T11:48:02;11.30;;;7.17;;
15946;SDS011;8072;52.554;7.966;2024-01-30T11:50:38;14.20;;;7.37;;
15946;SDS011;8072;52.554;7.966;2024-01-30T11:53:07;13.57;;;8.30;;
15946;SDS011;8072;52.554;7.966;2024-01-30T11:55:36;14.10;;;9.23;;
15946;SDS011;8072;52.554;7.966;2024-01-30T11:58:08;15.27;;;7.60;;
15946;SDS011;8072;52.554;7.966;2024-01-30T12:00:34;12.53;;;7.70;;
15946;SDS011;8072;52.554;7.966;2024-01-30T12:03:03;13.60;;;8.03;;
15946;SDS011;8072;52.554;7.966;2024-01-30T12:05:32;13.53;;;8.23;;
15946;SDS011;8072;52.554;7.966;2024-01-30T12:07:58;11.93;;;7.67;;
15946;SDS011;8072;52.554;7.966;2024-01-30T12:10:24;12.30;;;7.73;;
15946;SDS011;8072;52.554;7.966;2024-01-30T12:12:51;13.60;;;7.40;;
15946;SDS011;8072;52.554;7.966;2024-01-30T12:15:18;14.00;;;8.37;;
15946;SDS011;8072;52.554;7.966;2024-01-30T12:17:46;16.93;;;8.23;;
15946;SDS011;8072;52.554;7.966;2024-01-30T12:20:13;16.83;;;8.17;;
15946;SDS011;8072;52.554;7.966;2024-01-30T12:22:46;14.93;;;8.30;;
15946;SDS011;8072;52.554;7.966;2024-01-30T12:25:14;12.80;;;7.53;;
15946;SDS011;8072;52.554;7.966;2024-01-30T12:27:44;12.07;;;7.63;;
15946;SDS011;8072;52.554;7.966;2024-01-30T12:30:14;14.90;;;7.87;;
15946;SDS011;8072;52.554;7.966;2024-01-30T12:32:47;15.13;;;7.90;;
15946;SDS011;8072;52.554;7.966;2024-01-30T12:35:15;11.23;;;7.73;;
15946;SDS011;8072;52.554;7.966;2024-01-30T12:37:43;12.33;;;7.73;;
15946;SDS011;8072;52.554;7.966;2024-01-30T12:40:10;13.90;;;7.83;;
15946;SDS011;8072;52.554;7.966;2024-01-30T12:42:39;16.47;;;8.53;;
15946;SDS011;8072;52.554;7.966;2024-01-30T12:45:07;12.07;;;7.73;;
15946;SDS011;8072;52.554;7.966;2024-01-30T12:47:33;14.83;;;8.57;;
15946;SDS011;8072;52.554;7.966;2024-01-30T12:49:58;13.17;;;7.90;;
15946;SDS011;8072;52.554;7.966;2024-01-30T12:52:24;13.30;;;8.17;;
15946;SDS011;8072;52.554;7.966;2024-01-30T12:54:51;14.43;;;8.70;;
15946;SDS011;8072;52.554;7.966;2024-01-30T12:57:17;13.87;;;8.50;;
15946;SDS011;8072;52.554;7.966;2024-01-30T12:59:44;15.23;;;8.67;;
15946;SDS011;8072;52.554;7.966;2024-01-30T13:02:11;12.17;;;8.40;;
15946;SDS011;8072;52.554;7.966;2024-01-30T13:04:48;12.67;;;7.97;;
15946;SDS011;8072;52.554;7.966;2024-01-30T13:07:17;15.70;;;8.60;;
15946;SDS011;8072;52.554;7.966;2024-01-30T13:09:46;13.67;;;8.53;;
15946;SDS011;8072;52.554;7.966;2024-01-30T13:12:22;15.30;;;8.33;;
15946;SDS011;8072;52.554;7.966;2024-01-30T13:14:50;19.57;;;8.57;;
15946;SDS011;8072;52.554;7.966;2024-01-30T13:17:16;18.00;;;8.33;;
15946;SDS011;8072;52.554;7.966;2024-01-30T13:19:42;13.50;;;8.80;;
15946;SDS011;8072;52.554;7.966;2024-01-30T13:22:08;16.83;;;8.70;;
15946;SDS011;8072;52.554;7.966;2024-01-30T13:24:37;18.27;;;8.77;;
15946;SDS011;8072;52.554;7.966;2024-01-30T13:27:03;14.17;;;8.97;;
15946;SDS011;8072;52.554;7.966;2024-01-30T13:29:34;12.93;;;8.67;;
15946;SDS011;8072;52.554;7.966;2024-01-30T13:31:59;16.00;;;9.27;;
15946;SDS011;8072;52.554;7.966;2024-01-30T13:34:25;14.23;;;8.93;;
15946;SDS011;8072;52.554;7.966;2024-01-30T13:36:54;11.67;;;8.10;;
15946;SDS011;8072;52.554;7.966;2024-01-30T13:39:23;12.37;;;7.93;;
15946;SDS011;8072;52.554;7.966;2024-01-30T13:41:49;13.97;;;8.33;;
15946;SDS011;8072;52.554;7.966;2024-01-30T13:44:15;16.67;;;8.33;;
15946;SDS011;8072;52.554;7.966;2024-01-30T13:46:42;13.30;;;8.50;;
15946;SDS011;8072;52.554;7.966;2024-01-30T13:49:11;14.23;;;7.90;;
15946;SDS011;8072;52.554;7.966;2024-01-30T13:51:40;14.10;;;8.23;;
15946;SDS011;8072;52.554;7.966;2024-01-30T13:54:08;15.63;;;8.73;;
15946;SDS011;8072;52.554;7.966;2024-01-30T13:56:34;11.60;;;8.67;;
15946;SDS011;8072;52.554;7.966;2024-01-30T13:58:59;15.53;;;8.33;;
15946;SDS011;8072;52.554;7.966;2024-01-30T14:01:26;13.27;;;8.60;;
15946;SDS011;8072;52.554;7.966;2024-01-30T14:03:52;11.10;;;7.73;;
15946;SDS011;8072;52.554;7.966;2024-01-30T14:06:18;10.50;;;7.40;;
15946;SDS011;8072;52.554;7.966;2024-01-30T14:08:44;12.20;;;7.40;;
15946;SDS011;8072;52.554;7.966;2024-01-30T14:11:13;14.20;;;7.63;;
15946;SDS011;8072;52.554;7.966;2024-01-30T14:13:39;12.10;;;7.73;;
15946;SDS011;8072;52.554;7.966;2024-01-30T14:16:05;11.67;;;7.43;;
15946;SDS011;8072;52.554;7.966;2024-01-30T14:18:34;10.87;;;7.87;;
15946;SDS011;8072;52.554;7.966;2024-01-30T14:20:59;9.80;;;7.30;;
15946;SDS011;8072;52.554;7.966;2024-01-30T14:23:25;10.47;;;6.97;;
15946;SDS011;8072;52.554;7.966;2024-01-30T14:25:51;11.37;;;6.97;;
15946;SDS011;8072;52.554;7.966;2024-01-30T14:28:17;10.57;;;7.30;;
15946;SDS011;8072;52.554;7.966;2024-01-30T14:30:46;11.43;;;7.07;;
15946;SDS011;8072;52.554;7.966;2024-01-30T14:33:12;9.07;;;6.23;;
15946;SDS011;8072;52.554;7.966;2024-01-30T14:35:38;11.13;;;6.73;;
15946;SDS011;8072;52.554;7.966;2024-01-30T14:38:04;11.83;;;6.97;;
15946;SDS011;8072;52.554;7.966;2024-01-30T14:40:32;11.23;;;6.97;;
15946;SDS011;8072;52.554;7.966;2024-01-30T14:42:58;12.30;;;7.57;;
15946;SDS011;8072;52.554;7.966;2024-01-30T14:45:30;9.50;;;7.30;;